Time,TemperatureF,DewpointF,PressureIn,WindDirection,WindDirectionDegrees,WindSpeedMPH,WindSpeedGustMPH,Humidity,HourlyPrecipIn,Conditions,Clouds,dailyrainin,SolarRadiationWatts/m^2,SoftwareType,DateUTC
2013-11-11 00:02:00,31.0,27.0,-100.00,NNE,25,9.0,17.0,85,0.00,,,0.00,0.000000,,2013-11-11 07:02:00,
2013-11-11 00:12:00,31.0,27.0,-100.00,NNE,25,9.0,17.0,85,0.00,,,0.00,0.000000,,2013-11-11 07:12:00,
2013-11-11 00:43:00,29.0,26.0,-100.00,NNE,32,8.0,11.0,90,0.00,,,0.00,0.000000,,2013-11-11 07:43:00,
2013-11-11 00:52:00,29.0,26.0,-100.00,NNE,32,8.0,11.0,90,0.00,,,0.00,0.000000,,2013-11-11 07:52:00,
2013-11-11 01:02:00,29.0,26.0,-100.00,NNE,32,8.0,11.0,90,0.00,,,0.00,0.000000,,2013-11-11 08:02:00,
2013-11-11 01:11:00,29.0,26.0,-100.00,NNE,32,8.0,11.0,90,0.00,,,0.00,0.000000,,2013-11-11 08:11:00,
2013-11-11 01:42:00,28.0,26.0,-100.00,NNE,26,12.0,18.0,93,0.00,,,0.00,0.000000,,2013-11-11 08:42:00,
2013-11-11 01:52:00,28.0,26.0,-100.00,NNE,26,12.0,18.0,93,0.00,,,0.00,0.000000,,2013-11-11 08:52:00,
2013-11-11 02:02:00,28.0,26.0,-100.00,NNE,26,12.0,18.0,93,0.00,,,0.00,0.000000,,2013-11-11 09:02:00,
2013-11-11 02:11:00,28.0,26.0,-100.00,NNE,26,12.0,18.0,93,0.00,,,0.00,0.000000,,2013-11-11 09:11:00,
2013-11-11 02:13:00,26.0,25.0,-100.00,NNE,26,12.0,22.0,96,0.00,,,0.00,0.000000,,2013-11-11 09:13:00,
2013-11-11 02:43:00,26.0,25.0,-100.00,NNE,26,12.0,22.0,96,0.00,,,0.00,0.000000,,2013-11-11 09:43:00,
2013-11-11 02:54:00,26.0,25.0,-100.00,NNE,26,12.0,22.0,96,0.00,,,0.00,0.000000,,2013-11-11 09:54:00,
2013-11-11 03:03:00,26.0,25.0,-100.00,NNE,26,12.0,22.0,96,0.00,,,0.00,0.000000,,2013-11-11 10:03:00,
2013-11-11 03:42:00,23.0,22.0,-100.00,NNE,29,10.0,21.0,95,0.00,,,0.00,0.000000,,2013-11-11 10:42:00,
2013-11-11 03:52:00,23.0,22.0,-100.00,NNE,29,10.0,21.0,95,0.00,,,0.00,0.000000,,2013-11-11 10:52:00,
2013-11-11 04:03:00,23.0,22.0,-100.00,NNE,29,10.0,21.0,95,0.00,,,0.00,0.000000,,2013-11-11 11:03:00,
2013-11-11 04:12:00,23.0,22.0,-100.00,NNE,29,10.0,21.0,95,0.00,,,0.00,0.000000,,2013-11-11 11:12:00,
2013-11-11 04:42:00,22.0,20.0,-100.00,NE,46,8.0,18.0,93,0.00,,,0.00,0.000000,,2013-11-11 11:42:00,
2013-11-11 04:52:00,22.0,20.0,-100.00,NE,46,8.0,18.0,93,0.00,,,0.00,0.000000,,2013-11-11 11:52:00,
2013-11-11 05:02:00,22.0,20.0,-100.00,NE,46,8.0,18.0,93,0.00,,,0.00,0.000000,,2013-11-11 12:02:00,
2013-11-11 05:12:00,22.0,20.0,-100.00,NE,46,8.0,18.0,93,0.00,,,0.00,0.000000,,2013-11-11 12:12:00,
2013-11-11 05:42:00,20.0,18.0,-100.00,NE,36,8.0,14.0,92,0.00,,,-99.99,0.000000,,2013-11-11 12:42:00,
2013-11-11 05:52:00,20.0,18.0,-100.00,NE,36,8.0,14.0,92,0.00,,,-99.99,0.000000,,2013-11-11 12:52:00,
2013-11-11 06:01:00,20.0,18.0,-100.00,NE,36,8.0,14.0,92,0.00,,,-99.99,0.000000,,2013-11-11 13:01:00,
2013-11-11 06:11:00,20.0,18.0,-100.00,NE,36,8.0,14.0,92,0.00,,,-99.99,0.000000,,2013-11-11 13:11:00,
2013-11-11 06:42:00,19.0,17.0,-100.00,NE,41,6.0,12.0,91,0.00,,,-99.99,0.000000,,2013-11-11 13:42:00,
2013-11-11 06:52:00,19.0,17.0,-100.00,NE,41,6.0,12.0,91,0.00,,,-99.99,0.000000,,2013-11-11 13:52:00,
2013-11-11 07:02:00,19.0,17.0,-100.00,NE,41,6.0,12.0,91,0.00,,,-99.99,0.000000,,2013-11-11 14:02:00,
2013-11-11 07:11:00,19.0,17.0,-100.00,NE,41,6.0,12.0,91,0.00,,,-99.99,0.000000,,2013-11-11 14:11:00,
2013-11-11 07:42:00,18.0,16.0,-100.00,NNE,26,8.0,12.0,90,0.00,,,-99.99,4.000000,,2013-11-11 14:42:00,
2013-11-11 07:52:00,18.0,16.0,-100.00,NNE,26,8.0,12.0,90,0.00,,,-99.99,4.000000,,2013-11-11 14:52:00,
2013-11-11 08:02:00,18.0,16.0,-100.00,NNE,26,8.0,12.0,90,0.00,,,-99.99,4.000000,,2013-11-11 15:02:00,
2013-11-11 08:11:00,18.0,16.0,-100.00,NNE,26,8.0,12.0,90,0.00,,,-99.99,4.000000,,2013-11-11 15:11:00,
2013-11-11 08:13:00,18.0,16.0,-100.00,NE,39,6.0,12.0,90,0.00,,,0.00,25.000000,,2013-11-11 15:13:00,
2013-11-11 08:43:00,18.0,16.0,-100.00,NE,39,6.0,12.0,90,0.00,,,0.00,25.000000,,2013-11-11 15:43:00,
2013-11-11 08:53:00,18.0,16.0,-100.00,NE,39,6.0,12.0,90,0.00,,,0.00,25.000000,,2013-11-11 15:53:00,
2013-11-11 09:03:00,18.0,16.0,-100.00,NE,39,6.0,12.0,90,0.00,,,0.00,25.000000,,2013-11-11 16:03:00,
2013-11-11 09:42:00,19.0,17.0,-100.00,NE,43,4.0,8.0,90,0.00,,,0.00,42.000000,,2013-11-11 16:42:00,
2013-11-11 09:53:00,19.0,17.0,-100.00,NE,43,4.0,8.0,90,0.00,,,0.00,42.000000,,2013-11-11 16:53:00,
2013-11-11 10:03:00,19.0,17.0,-100.00,NE,43,4.0,8.0,90,0.00,,,0.00,42.000000,,2013-11-11 17:03:00,
2013-11-11 10:12:00,19.0,17.0,-100.00,NE,43,4.0,8.0,90,0.00,,,0.00,42.000000,,2013-11-11 17:12:00,
2013-11-11 10:13:00,19.0,17.0,-100.00,East,93,4.0,6.0,91,0.00,,,0.00,46.000000,,2013-11-11 17:13:00,
2013-11-11 10:42:00,19.0,17.0,-100.00,East,93,4.0,6.0,91,0.00,,,0.00,46.000000,,2013-11-11 17:42:00,
2013-11-11 10:52:00,19.0,17.0,-100.00,East,93,4.0,6.0,91,0.00,,,0.00,46.000000,,2013-11-11 17:52:00,
2013-11-11 11:02:00,19.0,17.0,-100.00,East,93,4.0,6.0,91,0.00,,,0.00,46.000000,,2013-11-11 18:02:00,
2013-11-11 11:42:00,20.0,18.0,-100.00,East,83,3.0,6.0,91,0.00,,,0.00,83.000000,,2013-11-11 18:42:00,
2013-11-11 11:52:00,20.0,18.0,-100.00,East,83,3.0,6.0,91,0.00,,,0.00,83.000000,,2013-11-11 18:52:00,
2013-11-11 12:01:00,20.0,18.0,-100.00,East,83,3.0,6.0,91,0.00,,,0.00,83.000000,,2013-11-11 19:01:00,
2013-11-11 12:12:00,20.0,18.0,-100.00,East,83,3.0,6.0,91,0.00,,,0.00,83.000000,,2013-11-11 19:12:00,
2013-11-11 12:42:00,20.0,17.0,-100.00,East,97,4.0,5.0,89,0.00,,,0.00,119.000000,,2013-11-11 19:42:00,
2013-11-11 12:53:00,20.0,17.0,-100.00,East,97,4.0,5.0,89,0.00,,,0.00,119.000000,,2013-11-11 19:53:00,
2013-11-11 13:02:00,20.0,17.0,-100.00,East,97,4.0,5.0,89,0.00,,,0.00,119.000000,,2013-11-11 20:02:00,
2013-11-11 13:11:00,20.0,17.0,-100.00,East,97,4.0,5.0,89,0.00,,,0.00,119.000000,,2013-11-11 20:11:00,
2013-11-11 13:42:00,22.0,19.0,-100.00,ESE,115,3.0,5.0,88,0.00,,,0.00,178.000000,,2013-11-11 20:42:00,
2013-11-11 13:52:00,22.0,19.0,-100.00,ESE,115,3.0,5.0,88,0.00,,,0.00,178.000000,,2013-11-11 20:52:00,
2013-11-11 14:02:00,22.0,19.0,-100.00,ESE,115,3.0,5.0,88,0.00,,,0.00,178.000000,,2013-11-11 21:02:00,
2013-11-11 14:12:00,22.0,19.0,-100.00,ESE,115,3.0,5.0,88,0.00,,,0.00,178.000000,,2013-11-11 21:12:00,
2013-11-11 14:13:00,21.0,18.0,-100.00,ESE,108,2.0,5.0,88,0.00,,,0.00,98.000000,,2013-11-11 21:13:00,
2013-11-11 14:43:00,21.0,18.0,-100.00,ESE,108,2.0,5.0,88,0.00,,,0.00,98.000000,,2013-11-11 21:43:00,
2013-11-11 14:55:00,21.0,18.0,-100.00,ESE,108,2.0,5.0,88,0.00,,,0.00,98.000000,,2013-11-11 21:55:00,
2013-11-11 15:04:00,21.0,18.0,-100.00,ESE,108,2.0,5.0,88,0.00,,,0.00,98.000000,,2013-11-11 22:04:00,
2013-11-11 15:13:00,21.0,18.0,-100.00,SE,132,3.0,5.0,87,0.00,,,0.00,74.000000,,2013-11-11 22:13:00,
2013-11-11 15:43:00,21.0,18.0,-100.00,SE,132,3.0,5.0,87,0.00,,,0.00,74.000000,,2013-11-11 22:43:00,
2013-11-11 15:53:00,21.0,18.0,-100.00,SE,132,3.0,5.0,87,0.00,,,0.00,74.000000,,2013-11-11 22:53:00,
2013-11-11 16:03:00,21.0,18.0,-100.00,SE,132,3.0,5.0,87,0.00,,,0.00,74.000000,,2013-11-11 23:03:00,
2013-11-11 16:43:00,21.0,18.0,-100.00,East,93,3.0,6.0,87,0.00,,,0.00,23.000000,,2013-11-11 23:43:00,
2013-11-11 16:53:00,21.0,18.0,-100.00,East,93,3.0,6.0,87,0.00,,,0.00,23.000000,,2013-11-11 23:53:00,
2013-11-11 17:03:00,21.0,18.0,-100.00,East,93,3.0,6.0,87,0.00,,,0.00,23.000000,,2013-11-12 00:03:00,
2013-11-11 17:11:00,21.0,18.0,-100.00,East,93,3.0,6.0,87,0.00,,,0.00,23.000000,,2013-11-12 00:11:00,
2013-11-11 17:42:00,20.0,17.0,-100.00,East,87,3.0,5.0,89,0.00,,,0.00,2.000000,,2013-11-12 00:42:00,
2013-11-11 17:52:00,20.0,17.0,-100.00,East,87,3.0,5.0,89,0.00,,,0.00,2.000000,,2013-11-12 00:52:00,
2013-11-11 18:01:00,20.0,17.0,-100.00,East,87,3.0,5.0,89,0.00,,,0.00,2.000000,,2013-11-12 01:01:00,
2013-11-11 18:11:00,20.0,17.0,-100.00,East,87,3.0,5.0,89,0.00,,,0.00,2.000000,,2013-11-12 01:11:00,
2013-11-11 18:42:00,20.0,17.0,-100.00,South,179,3.0,4.0,89,0.00,,,0.00,0.000000,,2013-11-12 01:42:00,
2013-11-11 18:52:00,20.0,17.0,-100.00,South,179,3.0,4.0,89,0.00,,,0.00,0.000000,,2013-11-12 01:52:00,
2013-11-11 19:01:00,20.0,17.0,-100.00,South,179,3.0,4.0,89,0.00,,,0.00,0.000000,,2013-11-12 02:01:00,
2013-11-11 19:12:00,20.0,17.0,-100.00,South,179,3.0,4.0,89,0.00,,,0.00,0.000000,,2013-11-12 02:12:00,
2013-11-11 19:42:00,21.0,18.0,-100.00,SSE,166,5.0,8.0,88,0.00,,,0.00,0.000000,,2013-11-12 02:42:00,
2013-11-11 19:52:00,21.0,18.0,-100.00,SSE,166,5.0,8.0,88,0.00,,,0.00,0.000000,,2013-11-12 02:52:00,
2013-11-11 20:02:00,21.0,18.0,-100.00,SSE,166,5.0,8.0,88,0.00,,,0.00,0.000000,,2013-11-12 03:02:00,
2013-11-11 20:11:00,21.0,18.0,-100.00,SSE,166,5.0,8.0,88,0.00,,,0.00,0.000000,,2013-11-12 03:11:00,
2013-11-11 20:13:00,23.0,21.0,-100.00,South,181,4.0,7.0,90,0.00,,,0.00,0.000000,,2013-11-12 03:13:00,
2013-11-11 20:45:00,23.0,21.0,-100.00,South,181,4.0,7.0,90,0.00,,,0.00,0.000000,,2013-11-12 03:45:00,
2013-11-11 20:54:00,23.0,21.0,-100.00,South,181,4.0,7.0,90,0.00,,,0.00,0.000000,,2013-11-12 03:54:00,
2013-11-11 21:05:00,23.0,21.0,-100.00,South,181,4.0,7.0,90,0.00,,,0.00,0.000000,,2013-11-12 04:05:00,
2013-11-11 21:13:00,24.0,21.0,-100.00,SSW,202,4.0,7.0,89,0.00,,,0.00,0.000000,,2013-11-12 04:13:00,
2013-11-11 21:44:00,24.0,21.0,-100.00,SSW,202,4.0,7.0,89,0.00,,,0.00,0.000000,,2013-11-12 04:44:00,
2013-11-11 21:53:00,24.0,21.0,-100.00,SSW,202,4.0,7.0,89,0.00,,,0.00,0.000000,,2013-11-12 04:53:00,
2013-11-11 22:03:00,24.0,21.0,-100.00,SSW,202,4.0,7.0,89,0.00,,,0.00,0.000000,,2013-11-12 05:03:00,
2013-11-11 22:13:00,22.0,20.0,-100.00,SW,230,1.0,6.0,91,0.00,,,0.00,0.000000,,2013-11-12 05:13:00,
2013-11-11 22:44:00,22.0,20.0,-100.00,SW,230,1.0,6.0,91,0.00,,,0.00,0.000000,,2013-11-12 05:44:00,
2013-11-11 22:54:00,22.0,20.0,-100.00,SW,230,1.0,6.0,91,0.00,,,0.00,0.000000,,2013-11-12 05:54:00,
2013-11-11 23:03:00,22.0,20.0,-100.00,SW,230,1.0,6.0,91,0.00,,,0.00,0.000000,,2013-11-12 06:03:00,
2013-11-11 23:42:00,21.0,19.0,-100.00,SW,234,1.0,4.0,91,0.00,,,0.00,0.000000,,2013-11-12 06:42:00,
2013-11-11 23:52:00,21.0,19.0,-100.00,SW,234,1.0,4.0,91,0.00,,,0.00,0.000000,,2013-11-12 06:52:00,